sensor_id;sensor_type;location;lat;lon;timestamp;temperature;humidity
12568;DHT22;6349;50.904;6.136;2023-05-06T00:00:16;12.80;99.90
12568;DHT22;6349;50.904;6.136;2023-05-06T00:02:18;12.80;99.90
12568;DHT22;6349;50.904;6.136;2023-05-06T00:04:20;12.80;99.90
12568;DHT22;6349;50.904;6.136;2023-05-06T00:06:22;12.80;99.90
12568;DHT22;6349;50.904;6.136;2023-05-06T00:08:24;12.80;99.90
12568;DHT22;6349;50.904;6.136;2023-05-06T00:10:26;12.70;99.90
12568;DHT22;6349;50.904;6.136;2023-05-06T00:12:28;12.70;99.90
12568;DHT22;6349;50.904;6.136;2023-05-06T00:14:30;12.80;99.90
12568;DHT22;6349;50.904;6.136;2023-05-06T00:16:32;12.80;99.90
12568;DHT22;6349;50.904;6.136;2023-05-06T00:18:34;12.70;99.90
12568;DHT22;6349;50.904;6.136;2023-05-06T00:20:36;12.80;99.90
12568;DHT22;6349;50.904;6.136;2023-05-06T00:22:38;12.70;99.90
12568;DHT22;6349;50.904;6.136;2023-05-06T00:24:41;12.70;99.90
12568;DHT22;6349;50.904;6.136;2023-05-06T00:26:46;12.70;99.90
12568;DHT22;6349;50.904;6.136;2023-05-06T00:28:48;12.70;99.90
12568;DHT22;6349;50.904;6.136;2023-05-06T00:30:49;12.60;99.90
12568;DHT22;6349;50.904;6.136;2023-05-06T00:32:51;12.60;99.90
12568;DHT22;6349;50.904;6.136;2023-05-06T00:34:53;12.60;99.90
12568;DHT22;6349;50.904;6.136;2023-05-06T00:36:55;12.60;99.90
12568;DHT22;6349;50.904;6.136;2023-05-06T00:38:56;12.70;99.90
12568;DHT22;6349;50.904;6.136;2023-05-06T00:40:58;12.70;99.90
12568;DHT22;6349;50.904;6.136;2023-05-06T00:43:00;12.70;99.90
12568;DHT22;6349;50.904;6.136;2023-05-06T00:45:02;12.70;99.90
12568;DHT22;6349;50.904;6.136;2023-05-06T00:47:04;12.70;99.90
12568;DHT22;6349;50.904;6.136;2023-05-06T00:49:08;12.60;99.90
12568;DHT22;6349;50.904;6.136;2023-05-06T00:51:11;12.60;99.90
12568;DHT22;6349;50.904;6.136;2023-05-06T00:53:13;12.60;99.90
12568;DHT22;6349;50.904;6.136;2023-05-06T00:55:15;12.60;99.90
12568;DHT22;6349;50.904;6.136;2023-05-06T00:57:17;12.70;99.90
12568;DHT22;6349;50.904;6.136;2023-05-06T00:59:20;12.80;99.90
12568;DHT22;6349;50.904;6.136;2023-05-06T01:01:22;12.80;99.90
12568;DHT22;6349;50.904;6.136;2023-05-06T01:03:24;12.90;99.90
12568;DHT22;6349;50.904;6.136;2023-05-06T01:05:32;12.90;99.90
12568;DHT22;6349;50.904;6.136;2023-05-06T01:10:09;12.90;99.90
12568;DHT22;6349;50.904;6.136;2023-05-06T01:12:42;12.90;99.90
12568;DHT22;6349;50.904;6.136;2023-05-06T01:15:08;12.80;99.90
12568;DHT22;6349;50.904;6.136;2023-05-06T01:17:10;12.70;99.90
12568;DHT22;6349;50.904;6.136;2023-05-06T01:19:24;12.70;99.90
12568;DHT22;6349;50.904;6.136;2023-05-06T01:21:29;12.60;99.90
12568;DHT22;6349;50.904;6.136;2023-05-06T01:23:52;12.80;99.90
12568;DHT22;6349;50.904;6.136;2023-05-06T01:25:54;12.80;99.90
12568;DHT22;6349;50.904;6.136;2023-05-06T01:27:55;12.90;99.90
12568;DHT22;6349;50.904;6.136;2023-05-06T01:29:58;13.00;99.90
12568;DHT22;6349;50.904;6.136;2023-05-06T01:34:29;12.90;99.90
12568;DHT22;6349;50.904;6.136;2023-05-06T01:36:44;12.80;99.90
12568;DHT22;6349;50.904;6.136;2023-05-06T01:39:19;12.70;99.90
12568;DHT22;6349;50.904;6.136;2023-05-06T01:41:25;12.70;99.90
12568;DHT22;6349;50.904;6.136;2023-05-06T01:43:32;12.60;99.90
12568;DHT22;6349;50.904;6.136;2023-05-06T01:45:35;12.50;99.90
12568;DHT22;6349;50.904;6.136;2023-05-06T01:47:40;12.50;99.90
12568;DHT22;6349;50.904;6.136;2023-05-06T01:49:42;12.50;99.90
12568;DHT22;6349;50.904;6.136;2023-05-06T01:51:50;12.40;99.90
12568;DHT22;6349;50.904;6.136;2023-05-06T01:53:51;12.40;99.90
12568;DHT22;6349;50.904;6.136;2023-05-06T01:55:53;12.40;99.90
12568;DHT22;6349;50.904;6.136;2023-05-06T01:57:55;12.40;99.90
12568;DHT22;6349;50.904;6.136;2023-05-06T01:59:57;12.30;99.90
12568;DHT22;6349;50.904;6.136;2023-05-06T02:01:59;12.30;99.90
12568;DHT22;6349;50.904;6.136;2023-05-06T02:04:01;12.20;99.90
12568;DHT22;6349;50.904;6.136;2023-05-06T02:06:03;12.20;99.90
12568;DHT22;6349;50.904;6.136;2023-05-06T02:08:05;12.20;99.90
12568;DHT22;6349;50.904;6.136;2023-05-06T02:10:07;12.10;99.90
12568;DHT22;6349;50.904;6.136;2023-05-06T02:12:09;12.10;99.90
12568;DHT22;6349;50.904;6.136;2023-05-06T02:14:12;12.00;99.90
12568;DHT22;6349;50.904;6.136;2023-05-06T02:16:14;12.10;99.90
12568;DHT22;6349;50.904;6.136;2023-05-06T02:18:15;12.00;99.90
12568;DHT22;6349;50.904;6.136;2023-05-06T02:20:16;12.00;99.90
12568;DHT22;6349;50.904;6.136;2023-05-06T02:22:18;12.00;99.90
12568;DHT22;6349;50.904;6.136;2023-05-06T02:24:20;12.00;99.90
12568;DHT22;6349;50.904;6.136;2023-05-06T02:26:22;11.90;99.90
12568;DHT22;6349;50.904;6.136;2023-05-06T02:28:24;11.90;99.90
12568;DHT22;6349;50.904;6.136;2023-05-06T02:30:26;11.90;99.90
12568;DHT22;6349;50.904;6.136;2023-05-06T02:32:31;11.90;99.90
12568;DHT22;6349;50.904;6.136;2023-05-06T02:34:32;11.90;99.90
12568;DHT22;6349;50.904;6.136;2023-05-06T02:36:34;11.80;99.90
12568;DHT22;6349;50.904;6.136;2023-05-06T02:38:36;11.90;99.90
12568;DHT22;6349;50.904;6.136;2023-05-06T02:40:37;11.80;99.90
12568;DHT22;6349;50.904;6.136;2023-05-06T02:42:39;11.70;99.90
12568;DHT22;6349;50.904;6.136;2023-05-06T02:44:41;11.60;99.90
12568;DHT22;6349;50.904;6.136;2023-05-06T02:46:43;11.70;99.90
12568;DHT22;6349;50.904;6.136;2023-05-06T02:48:44;11.60;99.90
12568;DHT22;6349;50.904;6.136;2023-05-06T02:50:46;11.60;99.90
12568;DHT22;6349;50.904;6.136;2023-05-06T02:52:48;11.60;99.90
12568;DHT22;6349;50.904;6.136;2023-05-06T02:54:51;11.60;99.90
12568;DHT22;6349;50.904;6.136;2023-05-06T02:56:53;11.50;99.90
12568;DHT22;6349;50.904;6.136;2023-05-06T02:58:55;11.50;99.90
12568;DHT22;6349;50.904;6.136;2023-05-06T03:00:56;11.50;99.90
12568;DHT22;6349;50.904;6.136;2023-05-06T03:02:58;11.50;99.90
12568;DHT22;6349;50.904;6.136;2023-05-06T03:05:00;11.50;99.90
12568;DHT22;6349;50.904;6.136;2023-05-06T03:07:05;11.50;99.90
12568;DHT22;6349;50.904;6.136;2023-05-06T03:09:06;11.50;99.90
12568;DHT22;6349;50.904;6.136;2023-05-06T03:11:09;11.50;99.90
12568;DHT22;6349;50.904;6.136;2023-05-06T03:13:12;11.50;99.90
12568;DHT22;6349;50.904;6.136;2023-05-06T03:15:14;11.50;99.90
12568;DHT22;6349;50.904;6.136;2023-05-06T03:17:16;11.50;99.90
12568;DHT22;6349;50.904;6.136;2023-05-06T03:19:18;11.50;99.90
12568;DHT22;6349;50.904;6.136;2023-05-06T03:21:19;11.50;99.90
12568;DHT22;6349;50.904;6.136;2023-05-06T03:23:21;11.50;99.90
12568;DHT22;6349;50.904;6.136;2023-05-06T03:25:22;11.50;99.90
12568;DHT22;6349;50.904;6.136;2023-05-06T03:27:24;11.60;99.90
12568;DHT22;6349;50.904;6.136;2023-05-06T03:29:26;11.60;99.90
12568;DHT22;6349;50.904;6.136;2023-05-06T03:31:28;11.60;99.90
12568;DHT22;6349;50.904;6.136;2023-05-06T03:33:30;11.60;99.90
12568;DHT22;6349;50.904;6.136;2023-05-06T03:35:32;11.50;99.90
12568;DHT22;6349;50.904;6.136;2023-05-06T03:37:33;11.50;99.90
12568;DHT22;6349;50.904;6.136;2023-05-06T03:39:35;11.40;99.90
12568;DHT22;6349;50.904;6.136;2023-05-06T03:41:37;11.40;99.90
12568;DHT22;6349;50.904;6.136;2023-05-06T03:43:39;11.40;99.90
12568;DHT22;6349;50.904;6.136;2023-05-06T03:45:42;11.40;99.90
12568;DHT22;6349;50.904;6.136;2023-05-06T03:47:44;11.40;99.90
12568;DHT22;6349;50.904;6.136;2023-05-06T03:49:46;11.40;99.90
12568;DHT22;6349;50.904;6.136;2023-05-06T03:51:48;11.40;99.90
12568;DHT22;6349;50.904;6.136;2023-05-06T03:53:50;11.40;99.90
12568;DHT22;6349;50.904;6.136;2023-05-06T03:55:52;11.30;99.90
12568;DHT22;6349;50.904;6.136;2023-05-06T03:57:54;11.30;99.90
12568;DHT22;6349;50.904;6.136;2023-05-06T03:59:56;11.30;99.90
12568;DHT22;6349;50.904;6.136;2023-05-06T04:01:57;11.20;99.90
12568;DHT22;6349;50.904;6.136;2023-05-06T04:03:59;11.30;99.90
12568;DHT22;6349;50.904;6.136;2023-05-06T04:06:01;11.20;99.90
12568;DHT22;6349;50.904;6.136;2023-05-06T04:08:04;11.30;99.90
12568;DHT22;6349;50.904;6.136;2023-05-06T04:10:06;11.20;99.90
12568;DHT22;6349;50.904;6.136;2023-05-06T04:12:08;11.20;99.90
12568;DHT22;6349;50.904;6.136;2023-05-06T04:14:10;11.20;99.90
12568;DHT22;6349;50.904;6.136;2023-05-06T04:16:12;11.20;99.90
12568;DHT22;6349;50.904;6.136;2023-05-06T04:18:14;11.30;99.90
12568;DHT22;6349;50.904;6.136;2023-05-06T04:20:20;11.20;99.90
12568;DHT22;6349;50.904;6.136;2023-05-06T04:22:22;11.20;99.90
12568;DHT22;6349;50.904;6.136;2023-05-06T04:24:24;11.20;99.90
12568;DHT22;6349;50.904;6.136;2023-05-06T04:26:28;11.20;99.90
12568;DHT22;6349;50.904;6.136;2023-05-06T04:28:30;11.20;99.90
12568;DHT22;6349;50.904;6.136;2023-05-06T04:30:32;11.30;99.90
12568;DHT22;6349;50.904;6.136;2023-05-06T04:32:34;11.30;99.90
12568;DHT22;6349;50.904;6.136;2023-05-06T04:34:36;11.30;99.90
12568;DHT22;6349;50.904;6.136;2023-05-06T04:36:38;11.40;99.90
12568;DHT22;6349;50.904;6.136;2023-05-06T04:38:39;11.40;99.90
12568;DHT22;6349;50.904;6.136;2023-05-06T04:40:42;11.40;99.90
12568;DHT22;6349;50.904;6.136;2023-05-06T04:42:44;11.40;99.90
12568;DHT22;6349;50.904;6.136;2023-05-06T04:44:46;11.40;99.90
12568;DHT22;6349;50.904;6.136;2023-05-06T04:46:49;11.50;99.90
12568;DHT22;6349;50.904;6.136;2023-05-06T04:48:50;11.50;99.90
12568;DHT22;6349;50.904;6.136;2023-05-06T04:50:52;11.50;99.90
12568;DHT22;6349;50.904;6.136;2023-05-06T04:52:54;11.40;99.90
12568;DHT22;6349;50.904;6.136;2023-05-06T04:54:56;11.40;99.90
12568;DHT22;6349;50.904;6.136;2023-05-06T04:56:58;11.40;99.90
12568;DHT22;6349;50.904;6.136;2023-05-06T04:59:00;11.30;99.90
12568;DHT22;6349;50.904;6.136;2023-05-06T05:01:07;11.40;99.90
12568;DHT22;6349;50.904;6.136;2023-05-06T05:03:09;11.40;99.90
12568;DHT22;6349;50.904;6.136;2023-05-06T05:05:13;11.40;99.90
12568;DHT22;6349;50.904;6.136;2023-05-06T05:07:14;11.40;99.90
12568;DHT22;6349;50.904;6.136;2023-05-06T05:09:17;11.40;99.90
12568;DHT22;6349;50.904;6.136;2023-05-06T05:11:18;11.50;99.90
12568;DHT22;6349;50.904;6.136;2023-05-06T05:13:20;11.40;99.90
12568;DHT22;6349;50.904;6.136;2023-05-06T05:15:22;11.50;99.90
12568;DHT22;6349;50.904;6.136;2023-05-06T05:17:24;11.50;99.90
12568;DHT22;6349;50.904;6.136;2023-05-06T05:19:26;11.60;99.90
12568;DHT22;6349;50.904;6.136;2023-05-06T05:21:28;11.60;99.90
12568;DHT22;6349;50.904;6.136;2023-05-06T05:23:30;11.70;99.90
12568;DHT22;6349;50.904;6.136;2023-05-06T05:25:32;11.70;99.90
12568;DHT22;6349;50.904;6.136;2023-05-06T05:27:34;11.70;99.90
12568;DHT22;6349;50.904;6.136;2023-05-06T05:29:36;11.80;99.90
12568;DHT22;6349;50.904;6.136;2023-05-06T05:31:38;11.80;99.90
12568;DHT22;6349;50.904;6.136;2023-05-06T05:33:40;11.80;99.90
12568;DHT22;6349;50.904;6.136;2023-05-06T05:35:42;11.90;99.90
12568;DHT22;6349;50.904;6.136;2023-05-06T05:37:43;11.90;99.90
12568;DHT22;6349;50.904;6.136;2023-05-06T05:39:45;11.90;99.90
12568;DHT22;6349;50.904;6.136;2023-05-06T05:41:47;12.00;99.90
12568;DHT22;6349;50.904;6.136;2023-05-06T05:43:49;12.10;99.90
12568;DHT22;6349;50.904;6.136;2023-05-06T05:45:51;12.10;99.90
12568;DHT22;6349;50.904;6.136;2023-05-06T05:47:52;12.30;99.90
12568;DHT22;6349;50.904;6.136;2023-05-06T05:49:55;12.30;99.90
12568;DHT22;6349;50.904;6.136;2023-05-06T05:51:56;12.40;99.90
12568;DHT22;6349;50.904;6.136;2023-05-06T05:53:58;12.50;99.90
12568;DHT22;6349;50.904;6.136;2023-05-06T05:56:00;12.60;99.90
12568;DHT22;6349;50.904;6.136;2023-05-06T05:58:02;12.60;99.90
12568;DHT22;6349;50.904;6.136;2023-05-06T06:00:04;12.70;99.90
12568;DHT22;6349;50.904;6.136;2023-05-06T06:02:07;12.80;99.90
12568;DHT22;6349;50.904;6.136;2023-05-06T06:04:08;12.90;99.90
12568;DHT22;6349;50.904;6.136;2023-05-06T06:06:10;12.90;99.90
12568;DHT22;6349;50.904;6.136;2023-05-06T06:08:12;13.00;99.90
12568;DHT22;6349;50.904;6.136;2023-05-06T06:10:14;13.10;99.90
12568;DHT22;6349;50.904;6.136;2023-05-06T06:12:15;13.20;99.90
12568;DHT22;6349;50.904;6.136;2023-05-06T06:14:18;13.30;99.90
12568;DHT22;6349;50.904;6.136;2023-05-06T06:16:20;13.40;99.90
12568;DHT22;6349;50.904;6.136;2023-05-06T06:18:22;13.50;99.90
12568;DHT22;6349;50.904;6.136;2023-05-06T06:20:24;13.60;99.90
12568;DHT22;6349;50.904;6.136;2023-05-06T06:22:27;13.70;99.90
12568;DHT22;6349;50.904;6.136;2023-05-06T06:24:28;13.80;99.90
12568;DHT22;6349;50.904;6.136;2023-05-06T06:26:30;13.90;99.90
12568;DHT22;6349;50.904;6.136;2023-05-06T06:28:32;14.00;99.90
12568;DHT22;6349;50.904;6.136;2023-05-06T06:30:34;14.00;99.90
12568;DHT22;6349;50.904;6.136;2023-05-06T06:32:46;14.10;99.90
12568;DHT22;6349;50.904;6.136;2023-05-06T06:34:48;14.20;99.90
12568;DHT22;6349;50.904;6.136;2023-05-06T06:36:50;14.20;99.90
12568;DHT22;6349;50.904;6.136;2023-05-06T06:38:52;14.30;99.90
12568;DHT22;6349;50.904;6.136;2023-05-06T06:40:54;14.40;99.90
12568;DHT22;6349;50.904;6.136;2023-05-06T06:42:55;14.40;99.90
12568;DHT22;6349;50.904;6.136;2023-05-06T06:44:58;14.40;99.90
12568;DHT22;6349;50.904;6.136;2023-05-06T06:46:59;14.50;99.90
12568;DHT22;6349;50.904;6.136;2023-05-06T06:49:01;14.60;99.90
12568;DHT22;6349;50.904;6.136;2023-05-06T06:51:03;14.70;99.90
12568;DHT22;6349;50.904;6.136;2023-05-06T06:53:05;14.70;99.90
12568;DHT22;6349;50.904;6.136;2023-05-06T06:55:08;14.70;99.90
12568;DHT22;6349;50.904;6.136;2023-05-06T06:57:10;14.80;99.90
12568;DHT22;6349;50.904;6.136;2023-05-06T06:59:12;14.90;99.90
12568;DHT22;6349;50.904;6.136;2023-05-06T07:01:14;15.00;99.90
12568;DHT22;6349;50.904;6.136;2023-05-06T07:03:16;15.00;99.90
12568;DHT22;6349;50.904;6.136;2023-05-06T07:05:19;15.10;99.90
12568;DHT22;6349;50.904;6.136;2023-05-06T07:07:21;15.20;99.90
12568;DHT22;6349;50.904;6.136;2023-05-06T07:09:23;15.20;99.90
12568;DHT22;6349;50.904;6.136;2023-05-06T07:11:25;15.20;99.90
12568;DHT22;6349;50.904;6.136;2023-05-06T07:13:26;15.30;99.90
12568;DHT22;6349;50.904;6.136;2023-05-06T07:15:28;15.30;99.90
12568;DHT22;6349;50.904;6.136;2023-05-06T07:17:31;15.40;99.90
12568;DHT22;6349;50.904;6.136;2023-05-06T07:19:32;15.40;99.90
12568;DHT22;6349;50.904;6.136;2023-05-06T07:21:34;15.50;99.90
12568;DHT22;6349;50.904;6.136;2023-05-06T07:23:36;15.60;99.90
12568;DHT22;6349;50.904;6.136;2023-05-06T07:25:38;15.60;99.90
12568;DHT22;6349;50.904;6.136;2023-05-06T07:27:39;15.60;99.90
12568;DHT22;6349;50.904;6.136;2023-05-06T07:29:41;15.70;99.90
12568;DHT22;6349;50.904;6.136;2023-05-06T07:31:46;15.70;99.90
12568;DHT22;6349;50.904;6.136;2023-05-06T07:33:48;15.70;99.90
12568;DHT22;6349;50.904;6.136;2023-05-06T07:35:52;15.80;99.90
12568;DHT22;6349;50.904;6.136;2023-05-06T07:37:54;15.90;99.90
12568;DHT22;6349;50.904;6.136;2023-05-06T07:39:56;15.90;99.90
12568;DHT22;6349;50.904;6.136;2023-05-06T07:41:58;15.90;99.90
12568;DHT22;6349;50.904;6.136;2023-05-06T07:44:00;16.00;99.90
12568;DHT22;6349;50.904;6.136;2023-05-06T07:46:02;16.10;99.90
12568;DHT22;6349;50.904;6.136;2023-05-06T07:48:05;16.10;99.90
12568;DHT22;6349;50.904;6.136;2023-05-06T07:50:07;16.10;99.90
12568;DHT22;6349;50.904;6.136;2023-05-06T07:52:09;16.20;99.90
12568;DHT22;6349;50.904;6.136;2023-05-06T07:54:10;16.20;99.90
12568;DHT22;6349;50.904;6.136;2023-05-06T07:56:13;16.20;99.90
12568;DHT22;6349;50.904;6.136;2023-05-06T07:58:15;16.30;99.90
12568;DHT22;6349;50.904;6.136;2023-05-06T08:00:17;16.30;99.90
12568;DHT22;6349;50.904;6.136;2023-05-06T08:02:19;16.30;99.90
12568;DHT22;6349;50.904;6.136;2023-05-06T08:04:22;16.40;99.90
12568;DHT22;6349;50.904;6.136;2023-05-06T08:06:24;16.40;99.90
12568;DHT22;6349;50.904;6.136;2023-05-06T08:08:26;16.50;99.90
12568;DHT22;6349;50.904;6.136;2023-05-06T08:10:28;16.60;99.90
12568;DHT22;6349;50.904;6.136;2023-05-06T08:12:30;16.60;99.90
12568;DHT22;6349;50.904;6.136;2023-05-06T08:14:32;16.70;99.90
12568;DHT22;6349;50.904;6.136;2023-05-06T08:16:34;16.70;99.90
12568;DHT22;6349;50.904;6.136;2023-05-06T08:18:36;16.80;99.90
12568;DHT22;6349;50.904;6.136;2023-05-06T08:20:37;16.90;99.90
12568;DHT22;6349;50.904;6.136;2023-05-06T08:22:39;17.00;99.90
12568;DHT22;6349;50.904;6.136;2023-05-06T08:24:41;17.10;99.90
12568;DHT22;6349;50.904;6.136;2023-05-06T08:26:43;17.20;99.90
12568;DHT22;6349;50.904;6.136;2023-05-06T08:28:44;17.30;99.90
12568;DHT22;6349;50.904;6.136;2023-05-06T08:30:46;17.30;99.90
12568;DHT22;6349;50.904;6.136;2023-05-06T08:32:49;17.40;99.90
12568;DHT22;6349;50.904;6.136;2023-05-06T08:34:50;17.40;99.90
12568;DHT22;6349;50.904;6.136;2023-05-06T08:36:52;17.40;99.90
12568;DHT22;6349;50.904;6.136;2023-05-06T08:38:54;17.40;99.90
12568;DHT22;6349;50.904;6.136;2023-05-06T08:40:59;17.50;99.90
12568;DHT22;6349;50.904;6.136;2023-05-06T08:43:04;17.60;99.90
12568;DHT22;6349;50.904;6.136;2023-05-06T08:45:07;17.70;99.90
12568;DHT22;6349;50.904;6.136;2023-05-06T08:47:09;17.80;99.90
12568;DHT22;6349;50.904;6.136;2023-05-06T08:49:11;17.80;99.90
12568;DHT22;6349;50.904;6.136;2023-05-06T08:51:14;17.70;99.90
12568;DHT22;6349;50.904;6.136;2023-05-06T08:53:16;17.70;99.90
12568;DHT22;6349;50.904;6.136;2023-05-06T08:55:18;17.70;99.90
12568;DHT22;6349;50.904;6.136;2023-05-06T08:57:20;17.70;99.90
12568;DHT22;6349;50.904;6.136;2023-05-06T08:59:25;17.80;99.90
12568;DHT22;6349;50.904;6.136;2023-05-06T09:01:31;17.80;99.90
12568;DHT22;6349;50.904;6.136;2023-05-06T09:03:33;17.80;99.90
12568;DHT22;6349;50.904;6.136;2023-05-06T09:05:34;17.90;99.90
12568;DHT22;6349;50.904;6.136;2023-05-06T09:07:36;17.90;99.90
12568;DHT22;6349;50.904;6.136;2023-05-06T09:09:38;17.90;99.90
12568;DHT22;6349;50.904;6.136;2023-05-06T09:11:40;18.00;99.90
12568;DHT22;6349;50.904;6.136;2023-05-06T09:13:42;18.10;99.90
12568;DHT22;6349;50.904;6.136;2023-05-06T09:16:03;18.20;99.90
12568;DHT22;6349;50.904;6.136;2023-05-06T09:18:07;18.30;99.90
12568;DHT22;6349;50.904;6.136;2023-05-06T09:20:12;18.40;99.90
12568;DHT22;6349;50.904;6.136;2023-05-06T09:22:14;18.60;99.90
12568;DHT22;6349;50.904;6.136;2023-05-06T09:24:16;18.70;99.90
12568;DHT22;6349;50.904;6.136;2023-05-06T09:26:21;18.80;99.90
12568;DHT22;6349;50.904;6.136;2023-05-06T09:28:23;18.80;99.90
12568;DHT22;6349;50.904;6.136;2023-05-06T09:30:43;18.70;99.90
12568;DHT22;6349;50.904;6.136;2023-05-06T09:32:46;18.60;99.90
12568;DHT22;6349;50.904;6.136;2023-05-06T09:34:50;18.50;99.90
12568;DHT22;6349;50.904;6.136;2023-05-06T09:36:51;18.50;99.90
12568;DHT22;6349;50.904;6.136;2023-05-06T09:38:54;18.50;99.90
12568;DHT22;6349;50.904;6.136;2023-05-06T09:40:57;18.40;99.90
12568;DHT22;6349;50.904;6.136;2023-05-06T09:42:59;18.50;99.90
12568;DHT22;6349;50.904;6.136;2023-05-06T09:45:01;18.40;99.90
12568;DHT22;6349;50.904;6.136;2023-05-06T09:47:03;18.50;99.90
12568;DHT22;6349;50.904;6.136;2023-05-06T09:49:05;18.50;99.90
12568;DHT22;6349;50.904;6.136;2023-05-06T09:51:08;18.50;99.90
12568;DHT22;6349;50.904;6.136;2023-05-06T09:53:11;18.60;99.90
12568;DHT22;6349;50.904;6.136;2023-05-06T09:55:14;18.70;99.90
12568;DHT22;6349;50.904;6.136;2023-05-06T09:57:17;18.70;99.90
12568;DHT22;6349;50.904;6.136;2023-05-06T09:59:20;18.90;99.90
12568;DHT22;6349;50.904;6.136;2023-05-06T10:01:22;18.80;99.90
12568;DHT22;6349;50.904;6.136;2023-05-06T10:03:25;18.90;99.90
12568;DHT22;6349;50.904;6.136;2023-05-06T10:05:27;19.10;99.90
12568;DHT22;6349;50.904;6.136;2023-05-06T10:07:31;19.00;99.90
12568;DHT22;6349;50.904;6.136;2023-05-06T10:09:34;19.10;99.90
12568;DHT22;6349;50.904;6.136;2023-05-06T10:11:37;19.10;99.90
12568;DHT22;6349;50.904;6.136;2023-05-06T10:13:40;19.10;99.90
12568;DHT22;6349;50.904;6.136;2023-05-06T10:15:46;19.10;99.90
12568;DHT22;6349;50.904;6.136;2023-05-06T10:17:50;19.20;99.90
12568;DHT22;6349;50.904;6.136;2023-05-06T10:19:56;19.10;99.90
12568;DHT22;6349;50.904;6.136;2023-05-06T10:24:36;19.20;99.90
12568;DHT22;6349;50.904;6.136;2023-05-06T10:26:44;19.30;99.90
12568;DHT22;6349;50.904;6.136;2023-05-06T10:28:49;19.40;99.90
12568;DHT22;6349;50.904;6.136;2023-05-06T10:30:54;19.40;99.90
12568;DHT22;6349;50.904;6.136;2023-05-06T10:33:00;19.40;99.90
12568;DHT22;6349;50.904;6.136;2023-05-06T10:37:46;19.70;99.90
12568;DHT22;6349;50.904;6.136;2023-05-06T10:39:50;19.60;99.90
12568;DHT22;6349;50.904;6.136;2023-05-06T10:41:53;19.60;99.90
12568;DHT22;6349;50.904;6.136;2023-05-06T10:43:56;19.60;99.90
12568;DHT22;6349;50.904;6.136;2023-05-06T10:46:13;19.70;99.90
12568;DHT22;6349;50.904;6.136;2023-05-06T10:48:15;19.80;99.90
12568;DHT22;6349;50.904;6.136;2023-05-06T10:50:23;19.90;99.90
12568;DHT22;6349;50.904;6.136;2023-05-06T10:52:42;20.10;99.90
12568;DHT22;6349;50.904;6.136;2023-05-06T10:54:49;20.20;99.90
12568;DHT22;6349;50.904;6.136;2023-05-06T10:58:56;20.40;99.90
12568;DHT22;6349;50.904;6.136;2023-05-06T11:01:01;20.50;99.90
12568;DHT22;6349;50.904;6.136;2023-05-06T11:03:09;20.60;99.90
12568;DHT22;6349;50.904;6.136;2023-05-06T11:05:11;20.60;99.90
12568;DHT22;6349;50.904;6.136;2023-05-06T11:07:14;20.60;99.90
12568;DHT22;6349;50.904;6.136;2023-05-06T11:09:23;20.60;99.90
12568;DHT22;6349;50.904;6.136;2023-05-06T11:12:06;20.50;99.90
12568;DHT22;6349;50.904;6.136;2023-05-06T11:14:13;20.50;99.90
12568;DHT22;6349;50.904;6.136;2023-05-06T11:16:48;20.50;99.90
12568;DHT22;6349;50.904;6.136;2023-05-06T11:18:54;20.60;99.90
12568;DHT22;6349;50.904;6.136;2023-05-06T11:23:11;20.50;99.90
12568;DHT22;6349;50.904;6.136;2023-05-06T11:25:13;20.60;99.90
12568;DHT22;6349;50.904;6.136;2023-05-06T11:27:16;20.60;99.90
12568;DHT22;6349;50.904;6.136;2023-05-06T11:29:22;20.50;99.90
12568;DHT22;6349;50.904;6.136;2023-05-06T11:31:24;20.60;99.90
12568;DHT22;6349;50.904;6.136;2023-05-06T11:33:31;20.50;99.90
12568;DHT22;6349;50.904;6.136;2023-05-06T11:35:37;20.50;99.90
12568;DHT22;6349;50.904;6.136;2023-05-06T11:37:41;20.60;99.90
12568;DHT22;6349;50.904;6.136;2023-05-06T11:39:47;20.50;99.90
12568;DHT22;6349;50.904;6.136;2023-05-06T11:41:52;20.70;99.90
12568;DHT22;6349;50.904;6.136;2023-05-06T11:43:55;20.90;99.90
12568;DHT22;6349;50.904;6.136;2023-05-06T11:45:58;21.00;99.90
12568;DHT22;6349;50.904;6.136;2023-05-06T11:48:00;21.00;99.90
12568;DHT22;6349;50.904;6.136;2023-05-06T11:50:02;20.90;99.90
12568;DHT22;6349;50.904;6.136;2023-05-06T11:52:11;20.90;99.90
12568;DHT22;6349;50.904;6.136;2023-05-06T11:54:13;21.00;99.90
12568;DHT22;6349;50.904;6.136;2023-05-06T11:56:19;21.00;99.90
12568;DHT22;6349;50.904;6.136;2023-05-06T11:58:26;21.00;99.90
12568;DHT22;6349;50.904;6.136;2023-05-06T12:00:29;21.00;99.90
12568;DHT22;6349;50.904;6.136;2023-05-06T12:02:31;21.00;99.90
12568;DHT22;6349;50.904;6.136;2023-05-06T12:04:45;21.10;99.90
12568;DHT22;6349;50.904;6.136;2023-05-06T12:06:48;21.00;99.90
12568;DHT22;6349;50.904;6.136;2023-05-06T12:08:50;21.00;99.90
12568;DHT22;6349;50.904;6.136;2023-05-06T12:10:58;20.90;99.90
12568;DHT22;6349;50.904;6.136;2023-05-06T12:13:01;20.90;99.90
12568;DHT22;6349;50.904;6.136;2023-05-06T12:15:03;20.70;99.90
12568;DHT22;6349;50.904;6.136;2023-05-06T12:17:06;20.50;99.90
12568;DHT22;6349;50.904;6.136;2023-05-06T12:19:07;20.40;99.90
12568;DHT22;6349;50.904;6.136;2023-05-06T12:21:07;20.30;99.90
12568;DHT22;6349;50.904;6.136;2023-05-06T12:23:15;20.10;99.90
12568;DHT22;6349;50.904;6.136;2023-05-06T12:25:16;20.10;99.90
12568;DHT22;6349;50.904;6.136;2023-05-06T12:27:34;20.00;99.90
12568;DHT22;6349;50.904;6.136;2023-05-06T12:29:36;19.80;99.90
12568;DHT22;6349;50.904;6.136;2023-05-06T12:31:38;19.70;99.90
12568;DHT22;6349;50.904;6.136;2023-05-06T12:33:46;19.70;99.90
12568;DHT22;6349;50.904;6.136;2023-05-06T12:35:51;19.60;99.90
12568;DHT22;6349;50.904;6.136;2023-05-06T12:37:56;19.50;99.90
12568;DHT22;6349;50.904;6.136;2023-05-06T12:39:58;19.50;99.90
12568;DHT22;6349;50.904;6.136;2023-05-06T12:41:59;19.40;99.90
12568;DHT22;6349;50.904;6.136;2023-05-06T12:44:01;19.40;99.90
12568;DHT22;6349;50.904;6.136;2023-05-06T12:46:06;19.30;99.90
12568;DHT22;6349;50.904;6.136;2023-05-06T12:48:14;19.30;99.90
12568;DHT22;6349;50.904;6.136;2023-05-06T12:50:38;19.20;99.90
12568;DHT22;6349;50.904;6.136;2023-05-06T12:52:43;19.20;99.90
12568;DHT22;6349;50.904;6.136;2023-05-06T12:54:45;19.20;99.90
12568;DHT22;6349;50.904;6.136;2023-05-06T12:56:47;19.10;99.90
12568;DHT22;6349;50.904;6.136;2023-05-06T12:59:00;19.00;99.90
12568;DHT22;6349;50.904;6.136;2023-05-06T13:01:03;18.90;99.90
12568;DHT22;6349;50.904;6.136;2023-05-06T13:03:05;18.90;99.90
12568;DHT22;6349;50.904;6.136;2023-05-06T13:05:07;18.80;99.90
12568;DHT22;6349;50.904;6.136;2023-05-06T13:07:09;18.70;99.90
12568;DHT22;6349;50.904;6.136;2023-05-06T13:09:11;18.50;99.90
12568;DHT22;6349;50.904;6.136;2023-05-06T13:11:13;18.40;99.90
12568;DHT22;6349;50.904;6.136;2023-05-06T13:13:16;18.30;99.90
12568;DHT22;6349;50.904;6.136;2023-05-06T13:15:18;18.10;99.90
12568;DHT22;6349;50.904;6.136;2023-05-06T13:17:20;18.00;99.90
12568;DHT22;6349;50.904;6.136;2023-05-06T13:19:21;17.90;99.90
12568;DHT22;6349;50.904;6.136;2023-05-06T13:21:23;17.90;99.90
12568;DHT22;6349;50.904;6.136;2023-05-06T13:23:24;17.80;99.90
12568;DHT22;6349;50.904;6.136;2023-05-06T13:25:26;17.70;99.90